Terminal Aerodrome Forecast
Issued by NWS Charleston, WV

Current Version | Previous Version | Graphics & Text | Print | Product List | Glossary On
Versions: 1 2 3 4 5 6 7 8 9 10 11 12 13 14 15
000
FTUS41 KRLX 251100
TAFPKB
TAF
KPKB 251122Z 2512/2612 24009KT P6SM OVC025
     FM252200 23005KT P6SM SCT050
     FM260200 VRB03KT P6SM SCT200=

USA.gov is the U.S. government's official web portal to all federal, state and local government web resources and services.